Time;durP1;ratioP1;P1;durP2;ratioP2;P2;SDS_P1;SDS_P2;PMS_P1;PMS_P2;Temp;Humidity;BMP_temperature;BMP_pressure;BME280_temperature;BME280_humidity;BME280_pressure;Samples;Min_cycle;Max_cycle;Signal;HPM_P1;HPM_P2
2022/01/02 00:00:30;;;;;;;8.32;3.35;;;7.80;99.90;;;;;;4955716;29;20040;-79
2022/01/02 00:03:18;;;;;;;5.07;2.42;;;7.80;99.90;;;;;;4959908;29;20067;-80
2022/01/02 00:05:48;;;;;;;5.63;2.30;;;7.70;99.90;;;;;;4943009;29;20027;-80
2022/01/02 00:08:27;;;;;;;7.30;3.17;;;7.70;99.90;;;;;;4944585;29;20043;-81
2022/01/02 00:11:52;;;;;;;4.03;2.47;;;7.70;99.90;;;;;;4951371;29;20094;-79
2022/01/02 00:15:17;;;;;;;7.85;3.42;;;7.70;99.90;;;;;;4885510;29;20036;-81
2022/01/02 00:17:49;;;;;;;4.80;2.55;;;7.70;99.90;;;;;;4881001;29;20038;-79
2022/01/02 00:20:20;;;;;;;5.82;3.38;;;7.60;99.90;;;;;;4981205;28;20047;-79
2022/01/02 00:23:05;;;;;;;3.90;2.13;;;7.50;99.90;;;;;;4977018;28;20099;-79
2022/01/02 00:25:34;;;;;;;3.15;1.60;;;7.50;99.90;;;;;;4963507;28;20007;-79
2022/01/02 00:28:01;;;;;;;4.57;2.10;;;7.50;99.90;;;;;;4978139;28;20045;-80
2022/01/02 00:30:31;;;;;;;6.25;2.47;;;7.50;99.90;;;;;;4997133;28;20031;-80
2022/01/02 01:02:30;;;;;;;3.15;1.55;;;7.00;99.90;;;;;;5633802;22;20080;-79
2022/01/02 01:05:36;;;;;;;2.45;1.20;;;7.00;99.90;;;;;;4987100;28;20033;-80
2022/01/02 01:08:30;;;;;;;4.65;2.30;;;7.00;99.90;;;;;;4985172;28;20108;-79
2022/01/02 01:12:10;;;;;;;4.07;1.30;;;7.20;99.90;;;;;;5000938;28;20150;-79
2022/01/02 01:15:30;;;;;;;4.73;1.27;;;7.40;99.90;;;;;;5015472;28;20034;-80
2022/01/02 01:22:16;;;;;;;3.33;1.65;;;7.60;99.90;;;;;;5019549;28;20025;-79
2022/01/02 01:25:44;;;;;;;3.90;1.85;;;7.50;99.90;;;;;;4970239;28;20047;-80
2022/01/02 01:28:25;;;;;;;5.43;2.42;;;7.60;99.90;;;;;;4984529;28;20053;-78
2022/01/02 01:31:16;;;;;;;5.18;2.22;;;7.50;99.90;;;;;;5007324;28;20034;-78
2022/01/02 01:33:41;;;;;;;3.28;1.63;;;7.60;99.90;;;;;;4993739;28;20038;-78
2022/01/02 01:36:09;;;;;;;4.38;1.40;;;7.60;99.90;;;;;;5012622;28;20033;-78
2022/01/02 01:38:36;;;;;;;7.28;1.80;;;7.60;99.90;;;;;;4994907;28;20026;-78
2022/01/02 01:41:21;;;;;;;3.35;1.60;;;7.60;99.90;;;;;;5009997;28;20392;-78
2022/01/02 01:44:04;;;;;;;4.70;1.77;;;7.60;99.90;;;;;;4993807;28;20029;-78
2022/01/02 01:46:30;;;;;;;3.22;1.70;;;7.70;99.90;;;;;;5015210;28;20025;-78
2022/01/02 01:49:02;;;;;;;;;;;7.60;99.90;;;;;;5033418;28;20034;-79
2022/01/02 01:51:27;;;;;;;2.13;0.90;;;7.50;99.90;;;;;;5013509;28;19906;-78
2022/01/02 01:53:54;;;;;;;;;;;7.50;99.90;;;;;;5015729;28;20060;-78
2022/01/02 01:56:48;;;;;;;5.97;2.10;;;7.40;99.90;;;;;;5016241;28;19906;-78
2022/01/02 01:59:16;;;;;;;3.65;1.75;;;7.40;99.90;;;;;;5033023;28;20032;-79
2022/01/02 02:02:01;;;;;;;3.28;1.00;;;7.40;99.90;;;;;;5012919;28;20038;-79
2022/01/02 02:04:30;;;;;;;3.83;1.10;;;7.30;99.90;;;;;;5033204;28;20205;-79
2022/01/02 02:06:58;;;;;;;2.53;1.15;;;7.20;99.90;;;;;;5016529;28;20062;-79
2022/01/02 02:09:36;;;;;;;3.33;1.52;;;7.10;99.90;;;;;;5033026;28;20058;-79
2022/01/02 02:12:02;;;;;;;6.25;2.80;;;6.90;99.90;;;;;;5016785;28;20033;-79
2022/01/02 02:14:51;;;;;;;6.38;2.20;;;6.80;99.90;;;;;;5023975;28;20056;-79
2022/01/02 02:17:31;;;;;;;3.65;1.73;;;6.60;99.90;;;;;;4973221;28;20094;-79
2022/01/02 02:20:32;;;;;;;8.55;2.35;;;6.60;99.90;;;;;;5014826;28;20029;-80
2022/01/02 02:23:04;;;;;;;4.13;1.83;;;6.50;99.90;;;;;;5015670;28;20026;-79
2022/01/02 02:25:32;;;;;;;5.10;1.95;;;6.50;99.90;;;;;;5016014;28;20022;-79
2022/01/02 02:28:02;;;;;;;8.32;2.80;;;6.50;99.90;;;;;;5033402;28;20013;-79
2022/01/02 02:30:30;;;;;;;10.27;3.72;;;6.50;99.90;;;;;;5033982;28;20072;-79
2022/01/02 02:33:03;;;;;;;11.82;4.55;;;6.30;99.90;;;;;;5005274;28;20080;-79
2022/01/02 02:35:38;;;;;;;9.05;4.22;;;6.30;99.90;;;;;;5022293;28;20014;-79
2022/01/02 02:38:07;;;;;;;7.70;3.30;;;6.20;99.90;;;;;;5018799;28;20777;-79
2022/01/02 02:44:33;;;;;;;6.05;2.88;;;6.50;99.90;;;;;;5001244;28;20048;-80
2022/01/02 02:51:10;;;;;;;18.20;7.40;;;6.40;99.90;;;;;;4939802;29;20039;-79
2022/01/02 02:57:44;;;;;;;8.50;4.30;;;6.10;99.90;;;;;;4830134;29;20068;-80
2022/01/02 03:08:03;;;;;;;8.15;4.80;;;6.10;99.90;;;;;;4773280;29;20570;-79
2022/01/02 03:10:50;;;;;;;23.65;12.35;;;5.90;99.90;;;;;;4787416;29;20107;-78
2022/01/02 03:13:15;;;;;;;27.30;14.38;;;5.80;99.90;;;;;;4824814;28;20039;-78
2022/01/02 03:15:54;;;;;;;;;;;5.80;99.90;;;;;;5009597;28;20018;-80
2022/01/02 03:18:21;;;;;;;11.57;5.97;;;5.70;99.90;;;;;;5000863;28;19910;-78
2022/01/02 03:20:47;;;;;;;10.05;5.45;;;5.60;99.90;;;;;;5002133;28;20037;-79
2022/01/02 03:23:13;;;;;;;;;;;5.70;99.90;;;;;;5001218;28;20054;-78
2022/01/02 03:25:40;;;;;;;9.07;5.07;;;5.60;99.90;;;;;;5007433;28;20341;-79
2022/01/02 03:31:00;;;;;;;8.85;4.20;;;5.50;99.90;;;;;;5032882;28;20072;-79
2022/01/02 03:33:29;;;;;;;7.60;4.53;;;5.50;99.90;;;;;;5015185;28;20040;-79
2022/01/02 03:35:56;;;;;;;8.00;3.92;;;5.50;99.90;;;;;;5032600;28;20098;-78
2022/01/02 03:38:27;;;;;;;7.78;3.67;;;5.30;99.90;;;;;;5013736;28;20041;-79
2022/01/02 03:40:53;;;;;;;4.38;2.47;;;5.30;99.90;;;;;;5029827;28;20042;-79
2022/01/02 03:43:21;;;;;;;6.65;3.70;;;5.30;99.90;;;;;;4997279;28;20069;-79
2022/01/02 03:45:47;;;;;;;5.20;2.58;;;5.20;99.90;;;;;;4998211;28;20202;-80
2022/01/02 03:48:13;;;;;;;6.82;3.38;;;5.20;99.90;;;;;;5012534;28;20053;-79
2022/01/02 03:50:40;;;;;;;6.43;3.42;;;5.20;99.90;;;;;;5011938;28;20045;-79
2022/01/02 03:53:06;;;;;;;6.38;3.33;;;5.20;99.90;;;;;;5012675;28;20026;-80
2022/01/02 03:55:39;;;;;;;7.35;3.95;;;5.10;99.90;;;;;;5013493;28;20025;-79
2022/01/02 03:58:08;;;;;;;6.10;3.28;;;5.10;99.90;;;;;;5013729;28;20432;-79
2022/01/02 04:01:08;;;;;;;7.38;3.17;;;5.10;99.90;;;;;;5012997;28;20258;-80
2022/01/02 04:03:38;;;;;;;7.03;2.65;;;5.20;99.90;;;;;;5022562;28;20042;-79
2022/01/02 04:06:03;;;;;;;7.63;3.03;;;5.10;99.90;;;;;;5011505;28;20065;-80
2022/01/02 04:08:29;;;;;;;;;;;5.10;99.90;;;;;;5013000;28;20221;-79
2022/01/02 04:11:04;;;;;;;8.63;4.30;;;5.10;99.90;;;;;;5028548;28;19914;-78
2022/01/02 04:13:30;;;;;;;14.70;6.60;;;5.00;99.90;;;;;;5027421;28;20028;-79
2022/01/02 04:16:01;;;;;;;;;;;4.90;99.90;;;;;;5008923;28;20116;-79
2022/01/02 04:18:27;;;;;;;10.85;5.30;;;4.90;99.90;;;;;;5024594;28;19937;-81
2022/01/02 04:20:57;;;;;;;;;;;4.80;99.90;;;;;;5014100;28;20025;-78
2022/01/02 04:24:04;;;;;;;12.18;6.47;;;4.80;99.90;;;;;;5026800;28;20375;-79
2022/01/02 04:26:42;;;;;;;11.95;6.18;;;4.70;99.90;;;;;;5009808;28;20037;-79
2022/01/02 04:29:17;;;;;;;9.20;5.20;;;4.60;99.90;;;;;;5023431;28;20038;-80
2022/01/02 04:32:15;;;;;;;7.78;4.20;;;4.50;99.90;;;;;;5001650;28;20085;-78
2022/01/02 04:34:59;;;;;;;7.72;3.97;;;4.50;99.90;;;;;;5018697;28;20034;-79
2022/01/02 04:37:26;;;;;;;8.55;4.13;;;4.40;99.90;;;;;;5019124;28;20030;-79
2022/01/02 04:39:52;;;;;;;14.10;6.80;;;4.40;99.90;;;;;;4998939;28;20033;-78
2022/01/02 04:42:18;;;;;;;;;;;4.40;99.90;;;;;;5010372;28;20050;-79
2022/01/02 04:44:44;;;;;;;14.65;7.82;;;4.40;99.90;;;;;;5017517;28;19925;-79
2022/01/02 04:47:10;;;;;;;13.48;7.60;;;4.50;99.90;;;;;;5001909;28;20022;-79
2022/01/02 04:49:36;;;;;;;18.30;8.50;;;4.50;99.90;;;;;;5017765;28;20082;-79
2022/01/02 04:52:03;;;;;;;13.10;8.05;;;4.40;99.90;;;;;;5018150;28;20097;-79
2022/01/02 04:54:29;;;;;;;7.88;4.15;;;4.50;99.90;;;;;;5033485;28;20018;-79
2022/01/02 04:56:55;;;;;;;6.10;2.92;;;4.50;99.90;;;;;;5017855;28;20034;-79
2022/01/02 04:59:21;;;;;;;;;;;4.60;99.90;;;;;;5018907;28;20018;-79
2022/01/02 05:01:47;;;;;;;4.30;2.30;;;4.70;99.90;;;;;;5017727;28;19984;-79
2022/01/02 05:04:14;;;;;;;7.35;2.83;;;4.70;99.90;;;;;;5033541;28;20014;-78
2022/01/02 05:06:39;;;;;;;;;;;4.70;99.90;;;;;;5017746;28;20021;-78
2022/01/02 05:09:07;;;;;;;6.63;3.28;;;4.70;99.90;;;;;;5016827;28;19913;-79
2022/01/02 05:11:32;;;;;;;12.43;4.20;;;4.70;99.90;;;;;;5014479;28;20033;-79
2022/01/02 05:13:58;;;;;;;;;;;4.70;99.90;;;;;;5014132;28;20006;-79
2022/01/02 05:16:25;;;;;;;7.07;2.55;;;4.60;99.90;;;;;;5004485;28;20255;-79
2022/01/02 05:18:52;;;;;;;9.95;3.60;;;4.60;99.90;;;;;;5009097;28;20033;-79
2022/01/02 05:21:23;;;;;;;6.97;3.45;;;4.50;99.90;;;;;;5007532;28;20037;-79
2022/01/02 05:23:49;;;;;;;12.52;5.18;;;4.50;99.90;;;;;;5007254;28;20037;-78
2022/01/02 05:26:15;;;;;;;;;;;4.50;99.90;;;;;;5025323;28;20022;-79
2022/01/02 05:28:41;;;;;;;15.68;6.47;;;4.40;99.90;;;;;;5009841;28;19932;-79
2022/01/02 05:31:09;;;;;;;;;;;4.40;99.90;;;;;;5033670;28;20030;-80
2022/01/02 05:33:36;;;;;;;15.57;6.88;;;4.40;99.90;;;;;;5017524;28;20393;-79
2022/01/02 05:36:04;;;;;;;16.30;6.50;;;4.30;99.90;;;;;;5016816;28;20157;-79
2022/01/02 05:38:37;;;;;;;11.07;4.53;;;4.30;99.90;;;;;;5018851;28;20014;-79
2022/01/02 05:41:04;;;;;;;7.93;3.40;;;4.40;99.90;;;;;;5034456;28;20114;-79
2022/01/02 05:43:30;;;;;;;6.40;3.10;;;4.50;99.90;;;;;;5012592;28;20034;-79
2022/01/02 05:45:56;;;;;;;;;;;4.60;99.90;;;;;;5010335;28;20052;-79
2022/01/02 05:48:21;;;;;;;12.43;4.50;;;4.60;99.90;;;;;;5007848;28;19913;-79
2022/01/02 05:50:47;;;;;;;;;;;4.60;99.90;;;;;;5028643;28;20038;-79
2022/01/02 05:53:12;;;;;;;22.35;9.07;;;4.50;99.90;;;;;;5014029;28;19905;-79
2022/01/02 05:55:38;;;;;;;;;;;4.40;99.90;;;;;;5012757;28;20026;-79
2022/01/02 05:58:07;;;;;;;13.70;6.57;;;4.40;99.90;;;;;;5007634;28;19909;-79
2022/01/02 06:00:33;;;;;;;18.70;8.55;;;4.40;99.90;;;;;;5023684;28;20030;-79
2022/01/02 06:03:00;;;;;;;15.75;6.43;;;4.50;99.90;;;;;;5006288;28;20014;-79
2022/01/02 06:05:25;;;;;;;13.13;6.43;;;4.50;99.90;;;;;;5034515;28;20029;-79
2022/01/02 06:07:51;;;;;;;;;;;4.50;99.90;;;;;;5011338;28;20032;-79
2022/01/02 06:10:17;;;;;;;12.68;6.13;;;4.50;99.90;;;;;;5008338;28;19913;-77
2022/01/02 06:12:43;;;;;;;9.73;4.68;;;4.60;99.90;;;;;;5005894;28;20026;-79
2022/01/02 06:15:09;;;;;;;;;;;4.50;99.90;;;;;;5023608;28;20032;-77
2022/01/02 06:17:36;;;;;;;15.25;7.65;;;4.60;99.90;;;;;;5005355;28;19920;-79
2022/01/02 06:20:03;;;;;;;11.30;6.63;;;4.40;99.90;;;;;;4988691;28;20072;-79
2022/01/02 06:22:29;;;;;;;16.45;7.13;;;4.40;99.90;;;;;;4988873;28;20033;-78
2022/01/02 06:24:55;;;;;;;;;;;4.40;99.90;;;;;;5022607;28;20483;-79
2022/01/02 06:27:22;;;;;;;18.73;9.90;;;4.50;99.90;;;;;;5004692;28;19912;-79
2022/01/02 06:29:49;;;;;;;13.38;8.48;;;5.00;99.90;;;;;;5021722;28;20046;-78
2022/01/02 06:32:15;;;;;;;16.63;6.82;;;5.30;99.90;;;;;;4988338;28;20026;-78
2022/01/02 06:34:44;;;;;;;;;;;5.50;99.90;;;;;;5004288;28;20036;-78
2022/01/02 06:37:36;;;;;;;11.45;5.30;;;5.60;99.90;;;;;;5029129;28;19893;-79
2022/01/02 06:40:20;;;;;;;17.63;7.63;;;5.50;99.90;;;;;;5028330;28;20034;-79
2022/01/02 06:42:51;;;;;;;17.17;6.80;;;5.60;99.90;;;;;;4997806;28;20521;-79
2022/01/02 06:46:00;;;;;;;14.48;8.18;;;5.50;99.90;;;;;;5029266;28;20017;-80
2022/01/02 06:48:52;;;;;;;;;;;5.50;99.90;;;;;;5034145;28;20034;-79
2022/01/02 06:52:14;;;;;;;20.60;12.48;;;5.40;99.90;;;;;;4955732;28;19941;-78
2022/01/02 06:54:53;;;;;;;10.23;6.10;;;5.40;99.90;;;;;;4971530;28;20039;-78
2022/01/02 06:57:21;;;;;;;16.20;6.75;;;5.40;99.90;;;;;;4978386;28;20552;-79
2022/01/02 07:00:13;;;;;;;14.85;7.50;;;5.30;99.90;;;;;;4966485;28;20031;-79
2022/01/02 07:02:38;;;;;;;13.07;6.93;;;5.10;99.90;;;;;;4963201;28;20035;-79
2022/01/02 07:05:06;;;;;;;;;;;5.00;99.90;;;;;;4962818;28;20553;-79
2022/01/02 07:07:42;;;;;;;13.98;7.90;;;4.90;99.90;;;;;;4975695;28;19906;-79
2022/01/02 07:10:21;;;;;;;27.27;15.57;;;4.80;99.90;;;;;;4958501;28;20049;-79
2022/01/02 07:12:50;;;;;;;150.63;84.18;;;4.80;99.90;;;;;;4977327;28;20114;-79
2022/01/02 07:19:07;;;;;;;14.07;9.20;;;4.80;99.90;;;;;;4997708;28;20094;-80
2022/01/02 07:21:55;;;;;;;16.13;9.98;;;5.00;99.90;;;;;;4919469;28;20012;-79
2022/01/02 07:24:22;;;;;;;15.73;10.10;;;5.00;99.90;;;;;;5012762;28;20034;-80
2022/01/02 07:29:15;;;;;;;;;;;5.40;99.90;;;;;;5442978;23;20041;-78
2022/01/02 07:31:47;;;;;;;;;;;5.50;99.90;;;;;;5018666;28;19910;-80
2022/01/02 07:34:16;;;;;;;11.23;7.10;;;5.60;99.90;;;;;;5037866;28;19905;-79
2022/01/02 07:36:44;;;;;;;16.17;7.22;;;5.80;99.90;;;;;;5037407;28;20022;-79
2022/01/02 07:39:16;;;;;;;16.13;8.82;;;5.90;99.90;;;;;;5018885;28;20060;-80
2022/01/02 07:41:58;;;;;;;16.08;9.30;;;6.10;99.90;;;;;;5012722;28;20050;-79
2022/01/02 07:44:42;;;;;;;16.67;10.13;;;6.20;99.90;;;;;;5026066;28;20038;-79
2022/01/02 07:47:29;;;;;;;21.40;12.07;;;6.40;99.90;;;;;;5014170;28;20040;-79
2022/01/02 07:50:57;;;;;;;26.73;15.73;;;6.60;99.90;;;;;;4995759;28;20129;-79
2022/01/02 07:53:45;;;;;;;37.17;21.85;;;7.00;99.90;;;;;;4889723;29;20045;-78
2022/01/02 07:56:18;;;;;;;37.65;22.90;;;7.40;99.90;;;;;;4898711;29;20024;-79
2022/01/02 07:58:58;;;;;;;29.85;16.55;;;7.80;99.90;;;;;;4911040;29;20144;-78
2022/01/02 08:01:41;;;;;;;25.20;16.08;;;8.20;99.90;;;;;;4880098;29;20541;-79
2022/01/02 08:04:41;;;;;;;21.38;13.43;;;8.60;99.90;;;;;;4909379;29;20048;-79
2022/01/02 08:07:30;;;;;;;20.58;12.80;;;8.90;99.90;;;;;;4917367;29;20025;-80
2022/01/02 08:11:01;;;;;;;19.48;11.27;;;9.30;99.90;;;;;;4916728;29;20029;-79
2022/01/02 08:14:22;;;;;;;87.13;50.95;;;9.50;99.90;;;;;;4898170;29;20019;-80
2022/01/02 08:20:35;;;;;;;48.15;36.53;;;10.00;99.90;;;;;;4923775;29;20054;-80
2022/01/02 08:23:48;;;;;;;25.02;18.15;;;10.20;99.90;;;;;;4888150;29;20017;-80
2022/01/02 08:26:48;;;;;;;24.65;17.23;;;10.20;99.90;;;;;;4826272;29;20063;-80
2022/01/02 08:29:43;;;;;;;33.55;22.02;;;10.00;99.90;;;;;;4848449;29;20047;-80
2022/01/02 08:32:10;;;;;;;18.50;12.02;;;9.90;99.90;;;;;;4903568;29;20139;-78
2022/01/02 08:34:36;;;;;;;31.40;14.75;;;9.60;99.90;;;;;;4973082;28;20043;-79
2022/01/02 08:37:01;;;;;;;;;;;9.50;99.90;;;;;;4991723;28;20084;-80
2022/01/02 08:39:27;;;;;;;24.00;13.93;;;9.50;99.90;;;;;;4983380;28;19905;-80
2022/01/02 08:41:53;;;;;;;;;;;9.40;99.90;;;;;;4997195;28;20017;-78
2022/01/02 08:44:20;;;;;;;29.20;15.65;;;9.30;99.90;;;;;;4994799;28;20290;-79
2022/01/02 08:46:50;;;;;;;26.90;19.27;;;9.30;99.90;;;;;;4993155;28;20038;-79
2022/01/02 08:49:17;;;;;;;23.83;17.15;;;9.40;99.90;;;;;;5006432;28;20050;-79
2022/01/02 08:51:48;;;;;;;25.70;18.30;;;9.50;99.90;;;;;;5007284;28;20077;-79
2022/01/02 08:54:15;;;;;;;25.77;17.65;;;9.60;99.90;;;;;;4997531;28;20014;-79
2022/01/02 08:56:45;;;;;;;23.38;16.75;;;9.70;99.90;;;;;;5012969;28;20033;-79
2022/01/02 08:59:15;;;;;;;20.42;14.68;;;9.80;99.90;;;;;;5014236;28;20070;-80
2022/01/02 09:01:41;;;;;;;34.67;21.92;;;9.90;99.90;;;;;;4989967;28;20499;-80
2022/01/02 09:04:08;;;;;;;;;;;10.00;99.90;;;;;;5018350;28;20050;-79
2022/01/02 09:06:37;;;;;;;25.45;15.00;;;10.10;99.90;;;;;;5027995;28;19910;-80
2022/01/02 09:09:12;;;;;;;24.63;16.13;;;10.20;99.90;;;;;;5007376;28;20034;-79
2022/01/02 09:11:51;;;;;;;28.45;21.23;;;10.00;99.90;;;;;;5022395;28;20018;-80
2022/01/02 09:14:17;;;;;;;27.15;18.48;;;9.90;99.90;;;;;;5001896;28;20042;-79
2022/01/02 09:16:47;;;;;;;;;;;9.90;99.90;;;;;;5030787;28;20106;-78
2022/01/02 09:20:02;;;;;;;29.40;20.00;;;9.80;99.90;;;;;;5036204;28;19897;-80
2022/01/02 09:22:31;;;;;;;22.48;15.90;;;9.60;99.90;;;;;;5027890;28;20053;-77
2022/01/02 09:24:58;;;;;;;23.85;16.23;;;9.50;99.90;;;;;;5030880;28;20021;-79
2022/01/02 09:27:25;;;;;;;21.77;14.30;;;9.60;99.90;;;;;;5002666;28;20037;-78
2022/01/02 09:29:51;;;;;;;20.77;13.70;;;9.50;99.90;;;;;;5021914;28;20531;-78
2022/01/02 09:32:17;;;;;;;;;;;9.60;99.90;;;;;;5020708;28;20033;-77
2022/01/02 09:34:42;;;;;;;18.23;12.60;;;9.70;99.90;;;;;;5004999;28;19980;-77
2022/01/02 09:37:08;;;;;;;;;;;9.70;99.90;;;;;;4976091;28;20026;-76
2022/01/02 09:39:34;;;;;;;21.73;12.48;;;9.80;99.90;;;;;;4992333;28;19978;-76
2022/01/02 09:41:59;;;;;;;;;;;9.90;99.90;;;;;;4975645;28;20462;-77
2022/01/02 09:44:25;;;;;;;16.92;10.07;;;9.90;99.90;;;;;;4974642;28;20591;-76
2022/01/02 09:46:51;;;;;;;;;;;9.90;99.90;;;;;;4975724;28;20023;-78
2022/01/02 09:49:18;;;;;;;13.97;8.83;;;10.00;99.90;;;;;;4992616;28;20004;-76
2022/01/02 09:51:44;;;;;;;16.02;10.57;;;10.00;99.90;;;;;;4992193;28;20018;-77
2022/01/02 09:54:10;;;;;;;;;;;10.00;99.90;;;;;;4975683;28;20040;-77
2022/01/02 09:56:36;;;;;;;20.75;14.88;;;10.00;99.90;;;;;;4992270;28;19916;-77
2022/01/02 09:59:02;;;;;;;;;;;9.90;99.90;;;;;;4993131;28;20030;-77
2022/01/02 10:01:30;;;;;;;23.42;15.88;;;9.90;99.90;;;;;;4975601;28;19957;-76
2022/01/02 10:03:57;;;;;;;22.10;14.45;;;10.00;99.90;;;;;;4993363;28;20085;-76
2022/01/02 10:06:40;;;;;;;14.20;9.73;;;10.10;99.90;;;;;;4975126;28;20081;-76
2022/01/02 10:09:13;;;;;;;13.70;8.23;;;10.30;99.90;;;;;;4974869;28;20030;-76
2022/01/02 10:11:40;;;;;;;10.75;7.70;;;10.30;99.90;;;;;;4974834;28;20030;-76
2022/01/02 10:14:09;;;;;;;9.18;6.43;;;10.30;99.90;;;;;;4974592;28;20512;-77
2022/01/02 10:16:40;;;;;;;8.82;5.90;;;10.40;99.90;;;;;;4992627;28;20030;-77
2022/01/02 10:19:28;;;;;;;9.20;6.03;;;10.40;99.90;;;;;;4992544;28;20038;-77
2022/01/02 10:21:59;;;;;;;9.90;7.18;;;10.40;99.90;;;;;;4994073;28;20089;-77
2022/01/02 10:24:28;;;;;;;11.10;7.28;;;10.40;99.90;;;;;;4976325;28;20034;-76
2022/01/02 10:27:16;;;;;;;9.93;6.35;;;10.40;99.90;;;;;;4977607;28;20557;-77
2022/01/02 10:29:54;;;;;;;9.55;6.03;;;10.50;99.90;;;;;;4977095;28;20395;-77
2022/01/02 10:32:41;;;;;;;12.35;7.50;;;10.50;99.90;;;;;;4995385;28;20030;-77
2022/01/02 10:35:11;;;;;;;;;;;10.60;99.90;;;;;;4995773;28;20049;-77
2022/01/02 10:37:38;;;;;;;10.27;6.40;;;10.50;99.90;;;;;;4977184;28;20369;-77
2022/01/02 10:40:05;;;;;;;10.60;6.47;;;10.50;99.90;;;;;;4998838;28;20028;-77
2022/01/02 10:42:41;;;;;;;11.95;6.75;;;10.50;99.90;;;;;;4994357;28;20073;-77
2022/01/02 10:45:07;;;;;;;9.50;6.18;;;10.50;99.90;;;;;;4993386;28;20029;-77
2022/01/02 10:47:33;;;;;;;;;;;10.50;99.90;;;;;;4975505;28;20034;-76
2022/01/02 10:50:03;;;;;;;11.57;6.65;;;10.50;99.90;;;;;;4993842;28;20497;-77
2022/01/02 10:52:38;;;;;;;8.43;6.00;;;10.60;99.90;;;;;;4975987;28;20089;-76
2022/01/02 10:55:14;;;;;;;11.48;7.53;;;10.60;99.90;;;;;;4975906;28;20133;-77
2022/01/02 10:57:46;;;;;;;12.75;8.77;;;10.70;99.90;;;;;;4993679;28;20033;-78
2022/01/02 11:00:12;;;;;;;9.05;5.90;;;10.70;99.90;;;;;;4974983;28;20042;-77
2022/01/02 11:02:39;;;;;;;9.65;5.20;;;10.80;99.90;;;;;;4994011;28;20050;-77
2022/01/02 11:05:09;;;;;;;8.50;5.22;;;10.80;99.90;;;;;;4994134;28;20035;-77
2022/01/02 11:07:49;;;;;;;8.95;5.35;;;10.90;99.90;;;;;;4993250;28;20053;-77
2022/01/02 11:10:17;;;;;;;9.40;5.70;;;11.00;99.90;;;;;;4994053;28;20042;-77
2022/01/02 11:12:44;;;;;;;9.38;4.25;;;11.10;99.90;;;;;;4990348;28;20042;-76
2022/01/02 11:15:17;;;;;;;7.18;4.00;;;11.20;99.90;;;;;;4990389;28;20089;-76
2022/01/02 11:17:43;;;;;;;7.68;4.30;;;11.20;99.90;;;;;;4991207;28;20525;-76
2022/01/02 11:20:13;;;;;;;6.82;4.43;;;11.30;99.90;;;;;;4991142;28;20050;-76
2022/01/02 11:22:52;;;;;;;9.70;5.55;;;11.30;99.90;;;;;;4974943;28;20031;-76
2022/01/02 11:25:29;;;;;;;26.35;13.95;;;11.30;99.90;;;;;;4982130;28;20038;-76
2022/01/02 11:28:04;;;;;;;14.70;7.65;;;11.40;99.90;;;;;;4990136;28;20101;-76
2022/01/02 11:30:35;;;;;;;9.23;4.07;;;11.50;99.90;;;;;;4984540;28;20518;-76
2022/01/02 11:33:03;;;;;;;8.10;4.25;;;11.60;99.90;;;;;;4976945;28;20038;-76
2022/01/02 11:35:31;;;;;;;4.80;2.72;;;11.70;99.90;;;;;;4979264;28;20069;-76
2022/01/02 11:38:02;;;;;;;7.75;4.13;;;11.80;99.90;;;;;;4992006;28;20089;-76
2022/01/02 11:40:51;;;;;;;7.03;3.70;;;11.90;99.90;;;;;;4978403;28;20077;-76
2022/01/02 11:43:35;;;;;;;6.45;3.63;;;12.10;99.90;;;;;;4988994;28;20084;-76
2022/01/02 11:46:29;;;;;;;8.43;3.58;;;12.10;99.90;;;;;;4984064;28;20053;-76
2022/01/02 11:49:04;;;;;;;8.73;3.88;;;12.20;99.90;;;;;;4979618;28;20085;-76
2022/01/02 11:51:59;;;;;;;9.88;5.53;;;12.20;99.90;;;;;;4979476;28;20034;-76
2022/01/02 11:54:40;;;;;;;12.25;7.10;;;12.20;99.90;;;;;;4964453;28;20046;-76
2022/01/02 11:57:15;;;;;;;17.55;11.27;;;12.20;99.90;;;;;;4981960;28;20044;-76
2022/01/02 11:59:44;;;;;;;22.83;12.75;;;12.20;99.90;;;;;;4992384;28;20105;-76
2022/01/02 12:02:30;;;;;;;16.48;9.05;;;12.20;99.90;;;;;;4977396;28;20554;-76
2022/01/02 12:05:14;;;;;;;45.67;24.85;;;12.20;99.90;;;;;;4975951;28;20046;-77
2022/01/02 12:07:50;;;;;;;13.90;9.02;;;12.10;99.90;;;;;;4993175;28;20081;-78
2022/01/02 12:12:56;;;;;;;;;;;12.00;99.90;;;;;;4997270;28;20398;-78
2022/01/02 12:15:34;;;;;;;14.60;8.40;;;11.90;99.90;;;;;;4994409;28;20796;-77
2022/01/02 12:18:12;;;;;;;15.05;10.52;;;11.90;99.90;;;;;;4992941;28;20038;-77
2022/01/02 12:20:53;;;;;;;20.48;13.10;;;11.80;99.90;;;;;;4992985;28;20030;-76
2022/01/02 12:23:33;;;;;;;18.10;12.32;;;11.70;99.90;;;;;;4992623;28;20442;-76
2022/01/02 12:26:02;;;;;;;16.85;11.75;;;11.70;99.90;;;;;;4992407;28;20029;-77
2022/01/02 12:28:48;;;;;;;20.83;13.65;;;11.60;99.90;;;;;;5010081;28;20506;-76
2022/01/02 12:31:18;;;;;;;19.55;13.20;;;11.60;99.90;;;;;;5010423;28;20570;-77
2022/01/02 12:33:45;;;;;;;23.88;13.00;;;11.50;99.90;;;;;;4993248;28;20096;-77
2022/01/02 12:36:42;;;;;;;22.50;13.13;;;11.50;99.90;;;;;;4992816;28;20505;-77
2022/01/02 12:39:16;;;;;;;26.65;15.73;;;11.40;99.90;;;;;;5003862;28;20080;-77
2022/01/02 12:41:44;;;;;;;25.25;16.23;;;11.40;99.90;;;;;;5014588;28;20117;-76
2022/01/02 12:44:29;;;;;;;23.45;16.35;;;11.40;99.90;;;;;;4997380;28;20773;-76
2022/01/02 12:47:09;;;;;;;18.02;11.65;;;11.30;99.90;;;;;;5017423;28;20022;-79
2022/01/02 12:49:47;;;;;;;16.35;10.05;;;11.20;99.90;;;;;;5035490;28;20044;-79
2022/01/02 12:52:15;;;;;;;17.17;11.20;;;11.10;99.90;;;;;;5023302;28;20040;-79
2022/01/02 12:54:44;;;;;;;16.35;9.18;;;11.00;99.90;;;;;;5024573;28;20033;-80
2022/01/02 13:01:11;;;;;;;14.52;9.27;;;10.70;99.90;;;;;;5038608;28;20037;-79
2022/01/02 13:04:15;;;;;;;14.68;9.38;;;10.40;99.90;;;;;;4924553;28;20033;-84
2022/01/02 13:10:43;;;;;;;27.17;17.90;;;10.10;99.90;;;;;;4920025;29;20456;-79
2022/01/02 13:14:04;;;;;;;36.13;23.52;;;10.10;99.90;;;;;;4807378;29;20043;-79
2022/01/02 13:17:34;;;;;;;57.63;34.75;;;10.10;99.90;;;;;;4741211;30;20124;-79
2022/01/02 13:20:20;;;;;;;53.88;33.65;;;10.10;99.90;;;;;;4857058;29;20035;-80
2022/01/02 13:22:48;;;;;;;118.20;55.50;;;10.00;99.90;;;;;;4948449;28;20055;-79
2022/01/02 13:25:29;;;;;;;52.28;26.73;;;10.00;99.90;;;;;;4960795;29;20012;-79
2022/01/02 13:31:40;;;;;;;34.35;21.90;;;9.90;99.90;;;;;;4953790;28;20067;-78
2022/01/02 13:38:06;;;;;;;59.45;30.90;;;9.80;99.90;;;;;;4905036;29;20049;-79
2022/01/02 14:02:15;;;;;;;31.63;21.73;;;9.50;99.90;;;;;;4741871;30;20058;-79
2022/01/02 14:06:00;;;;;;;29.23;19.33;;;9.40;99.90;;;;;;4688471;30;20042;-79
2022/01/02 14:09:22;;;;;;;26.77;17.40;;;9.50;99.90;;;;;;4655549;30;20031;-79
2022/01/02 14:12:16;;;;;;;28.48;20.08;;;9.50;99.90;;;;;;4637764;31;20047;-79
2022/01/02 14:32:58;;;;;;;33.70;20.50;;;9.30;99.90;;;;;;4686689;30;20081;-80
2022/01/02 14:50:03;;;;;;;36.15;24.45;;;8.80;99.90;;;;;;4739884;30;20070;-79
2022/01/02 14:53:10;;;;;;;35.47;22.42;;;8.70;99.90;;;;;;4717485;30;20045;-78
2022/01/02 14:59:17;;;;;;;39.75;25.80;;;8.50;99.90;;;;;;4705190;30;20154;-79
2022/01/02 15:06:21;;;;;;;37.40;24.75;;;8.30;99.90;;;;;;4721985;30;20056;-78
2022/01/02 15:09:44;;;;;;;44.67;28.88;;;8.20;99.90;;;;;;4746837;30;20054;-78
2022/01/02 15:12:34;;;;;;;54.97;32.13;;;8.10;99.90;;;;;;4802545;29;20040;-79
2022/01/02 15:15:21;;;;;;;51.28;31.75;;;8.10;99.90;;;;;;4813787;29;20045;-78
2022/01/02 15:17:54;;;;;;;50.47;31.23;;;8.00;99.90;;;;;;4873325;29;20068;-79
2022/01/02 15:20:27;;;;;;;60.67;36.60;;;7.90;99.90;;;;;;4943542;28;20034;-78
2022/01/02 15:22:55;;;;;;;53.42;33.13;;;7.90;99.90;;;;;;5008691;28;20098;-79
2022/01/02 15:25:34;;;;;;;41.45;25.73;;;8.00;99.90;;;;;;4997136;28;20033;-79
2022/01/02 15:28:15;;;;;;;34.38;19.05;;;7.90;99.90;;;;;;4993751;28;20050;-78
2022/01/02 15:31:12;;;;;;;54.05;30.63;;;8.00;99.90;;;;;;5015597;28;20084;-80
2022/01/02 15:34:34;;;;;;;20.67;11.68;;;8.00;99.90;;;;;;5024430;28;20046;-78
2022/01/02 15:37:32;;;;;;;23.13;12.20;;;7.90;99.90;;;;;;5017645;28;20042;-78
2022/01/02 15:40:04;;;;;;;34.30;20.95;;;8.00;99.90;;;;;;5033679;28;20006;-78
2022/01/02 15:42:43;;;;;;;25.08;14.90;;;8.00;99.90;;;;;;5018327;28;20036;-79
2022/01/02 15:45:49;;;;;;;31.58;17.25;;;7.90;99.90;;;;;;5000928;28;20030;-79
2022/01/02 15:48:43;;;;;;;56.28;31.40;;;7.80;99.90;;;;;;4995415;28;20461;-79
2022/01/02 15:51:29;;;;;;;46.80;29.67;;;7.70;99.90;;;;;;5004937;28;20038;-79
2022/01/02 15:53:56;;;;;;;39.72;21.33;;;7.60;99.90;;;;;;4995058;28;20034;-77
2022/01/02 15:56:28;;;;;;;37.70;23.00;;;7.50;99.90;;;;;;4998190;28;20018;-77
2022/01/02 15:58:56;;;;;;;70.78;42.97;;;7.40;99.90;;;;;;5030718;28;20033;-79
2022/01/02 16:04:29;;;;;;;84.25;53.03;;;7.10;99.90;;;;;;5037525;28;20025;-79
2022/01/02 16:07:16;;;;;;;97.60;59.70;;;7.10;99.90;;;;;;5015378;28;20026;-78
2022/01/02 16:09:47;;;;;;;102.03;64.20;;;7.00;99.90;;;;;;5035198;28;20086;-79
2022/01/02 16:12:13;;;;;;;88.80;57.90;;;6.90;99.90;;;;;;5000609;28;20026;-78